Celebrity Mercury — 9HJG9 — position and weather

sailwx.info

Track history (hours):
 
Tides and Currents Weather Stations Pressure Air Temp Water Temp Dewpoint Dewpoint Depression Visibility Wind Speed Wind Dir Waves Ship Positions

Celebrity Mercury

Last reported at 2017-Nov-24 09:30 UTC. Time now 2017-Nov-24 09:33 UTC.
Position N 39°33' E 002°38'.

Length 264 m; draft 8.5 m.

Type: Ship. MMSI: 249053000.

Date/timePositionNaut miles runAvg speedWind from/ knotsBaromVisibWave heightAir tempDewpointWater temp
2017-Nov-24 09:30N 39°33' E 002°38'0 0.0
2017-Nov-24 09:00N 39°33' E 002°38'0 0.0
2017-Nov-24 08:30N 39°33' E 002°38'0 0.0
2017-Nov-24 07:56N 39°33' E 002°38'0 0.0
2017-Nov-24 07:30N 39°33' E 002°38'0 0.0
2017-Nov-24 07:00N 39°33' E 002°38'0 0.0
2017-Nov-24 06:30N 39°33' E 002°38'0 0.0
2017-Nov-24 06:00N 39°33' E 002°38'0 0.0
2017-Nov-24 05:30N 39°33' E 002°38'0 0.0
2017-Nov-24 04:59N 39°33' E 002°38'0 0.0
2017-Nov-24 04:30N 39°33' E 002°38'0 0.0
2017-Nov-24 04:00N 39°33' E 002°38'0 0.0
2017-Nov-24 03:30N 39°33' E 002°38'0 0.0
2017-Nov-24 03:00N 39°33' E 002°38'0 0.6
2017-Nov-24 02:30N 39°33' E 002°38'2 3.9
2017-Nov-24 02:00N 39°31' E 002°39'713.6
2017-Nov-24 01:30N 39°25' E 002°35'815.4
2017-Nov-24 01:00N 39°24' E 002°25'1316.6
2017-Nov-24 00:12N 39°33' E 002°12'415.6
2017-Nov-23 23:56N 39°37' E 002°11'1615.7
2017-Nov-23 22:54N 39°53' E 002°11'3617.5
2017-Nov-23 20:52N 40°29' E 002°11'50 3.1
2017-Nov-23 04:49N 41°18' E 002°10'910.2
2017-Nov-23 03:59N 41°10' E 002°10'613.6
2017-Nov-23 03:30N 41°04' E 002°07'612.8
2017-Nov-23 03:00N 40°59' E 002°02'612.5
2017-Nov-23 02:30N 40°53' E 001°59'  
2017-Nov-19 23:02N 30°34' W 009°58'014.0
2017-Nov-19 23:00N 30°34' W 009°58'209 4.6
2017-Nov-18 01:44N 28°58' W 013°32'0 0.0
2017-Nov-17 21:22N 28°58' W 013°32'  
2017-Nov-15 00:46N 35°58' W 005°36'415.7
2017-Nov-15 00:30N 35°60' W 005°31'715.0
2017-Nov-15 00:00N 36°01' W 005°22'714.5
2017-Nov-14 23:30N 36°02' W 005°13'22215.9
2017-Nov-14 09:31N 37°08' W 000°49'  
Track history (hours):
 
Tides and Currents Weather Stations Pressure Air Temp Water Temp Dewpoint Dewpoint Depression Visibility Wind Speed Wind Dir Waves Ship Positions

Celebrity Mercury

Last reported at 2017-Nov-24 09:30 UTC. Time now 2017-Nov-24 09:33 UTC.
Position N 39°33' E 002°38'.

Length 264 m; draft 8.5 m.

Type: Ship. MMSI: 249053000.

Date/timePositionNaut miles runAvg speedWind from/ knotsBaromVisibWave heightAir tempDewpointWater temp
2017-Nov-24 09:30N 39°33' E 002°38'0 0.0
2017-Nov-24 09:00N 39°33' E 002°38'0 0.0
2017-Nov-24 08:30N 39°33' E 002°38'0 0.0
2017-Nov-24 07:56N 39°33' E 002°38'0 0.0
2017-Nov-24 07:30N 39°33' E 002°38'0 0.0
2017-Nov-24 07:00N 39°33' E 002°38'0 0.0
2017-Nov-24 06:30N 39°33' E 002°38'0 0.0
2017-Nov-24 06:00N 39°33' E 002°38'0 0.0
2017-Nov-24 05:30N 39°33' E 002°38'0 0.0
2017-Nov-24 04:59N 39°33' E 002°38'0 0.0
2017-Nov-24 04:30N 39°33' E 002°38'0 0.0
2017-Nov-24 04:00N 39°33' E 002°38'0 0.0
2017-Nov-24 03:30N 39°33' E 002°38'0 0.0
2017-Nov-24 03:00N 39°33' E 002°38'0 0.6
2017-Nov-24 02:30N 39°33' E 002°38'2 3.9
2017-Nov-24 02:00N 39°31' E 002°39'713.6
2017-Nov-24 01:30N 39°25' E 002°35'815.4
2017-Nov-24 01:00N 39°24' E 002°25'1316.6
2017-Nov-24 00:12N 39°33' E 002°12'415.6
2017-Nov-23 23:56N 39°37' E 002°11'1615.7
2017-Nov-23 22:54N 39°53' E 002°11'3617.5
2017-Nov-23 20:52N 40°29' E 002°11'50 3.1
2017-Nov-23 04:49N 41°18' E 002°10'910.2
2017-Nov-23 03:59N 41°10' E 002°10'613.6
2017-Nov-23 03:30N 41°04' E 002°07'612.8
2017-Nov-23 03:00N 40°59' E 002°02'612.5
2017-Nov-23 02:30N 40°53' E 001°59'  
2017-Nov-19 23:02N 30°34' W 009°58'014.0
2017-Nov-19 23:00N 30°34' W 009°58'209 4.6
2017-Nov-18 01:44N 28°58' W 013°32'0 0.0
2017-Nov-17 21:22N 28°58' W 013°32'  
2017-Nov-15 00:46N 35°58' W 005°36'415.7
2017-Nov-15 00:30N 35°60' W 005°31'715.0
2017-Nov-15 00:00N 36°01' W 005°22'714.5
2017-Nov-14 23:30N 36°02' W 005°13'22215.9
2017-Nov-14 09:31N 37°08' W 000°49'  

Dump ship's entire track history